sensor_id;sensor_type;location;lat;lon;timestamp;P1;durP1;ratioP1;P2;durP2;ratioP2
35552;SDS011;21656;46.054;13.614;2022-11-20T07:09:02;2.25;;;1.42;;
35552;SDS011;21656;46.054;13.614;2022-11-20T07:11:28;5.60;;;4.18;;
35552;SDS011;21656;46.054;13.614;2022-11-20T07:13:53;9.32;;;5.13;;
35552;SDS011;21656;46.054;13.614;2022-11-20T07:16:19;20.60;;;13.55;;
35552;SDS011;21656;46.054;13.614;2022-11-20T07:18:44;7.40;;;5.55;;
35552;SDS011;21656;46.054;13.614;2022-11-20T07:21:10;9.20;;;5.30;;
35552;SDS011;21656;46.054;13.614;2022-11-20T07:23:36;9.52;;;5.90;;
35552;SDS011;21656;46.054;13.614;2022-11-20T07:26:02;6.47;;;3.05;;
35552;SDS011;21656;46.054;13.614;2022-11-20T07:28:31;8.38;;;4.68;;
35552;SDS011;21656;46.054;13.614;2022-11-20T07:30:56;12.75;;;4.60;;
35552;SDS011;21656;46.054;13.614;2022-11-20T07:33:22;3.88;;;2.03;;
35552;SDS011;21656;46.054;13.614;2022-11-20T07:35:47;4.25;;;3.75;;
35552;SDS011;21656;46.054;13.614;2022-11-20T07:38:12;5.40;;;1.40;;
35552;SDS011;21656;46.054;13.614;2022-11-20T07:40:38;2.10;;;1.25;;
35552;SDS011;21656;46.054;13.614;2022-11-20T07:43:03;1.38;;;1.15;;
35552;SDS011;21656;46.054;13.614;2022-11-20T07:45:28;2.05;;;1.80;;
35552;SDS011;21656;46.054;13.614;2022-11-20T07:47:54;5.45;;;4.40;;
35552;SDS011;21656;46.054;13.614;2022-11-20T07:50:19;5.20;;;3.92;;
35552;SDS011;21656;46.054;13.614;2022-11-20T07:52:45;4.35;;;3.47;;
35552;SDS011;21656;46.054;13.614;2022-11-20T07:55:10;9.05;;;4.20;;
35552;SDS011;21656;46.054;13.614;2022-11-20T07:57:36;2.58;;;2.20;;
35552;SDS011;21656;46.054;13.614;2022-11-20T08:00:03;1.40;;;1.17;;
35552;SDS011;21656;46.054;13.614;2022-11-20T08:02:29;1.15;;;1.00;;
35552;SDS011;21656;46.054;13.614;2022-11-20T08:04:55;25.42;;;15.98;;
35552;SDS011;21656;46.054;13.614;2022-11-20T08:07:20;3.92;;;2.75;;
35552;SDS011;21656;46.054;13.614;2022-11-20T08:09:45;6.55;;;4.13;;
35552;SDS011;21656;46.054;13.614;2022-11-20T08:12:18;4.18;;;2.20;;
35552;SDS011;21656;46.054;13.614;2022-11-20T08:15:03;2.42;;;1.73;;
35552;SDS011;21656;46.054;13.614;2022-11-20T08:17:29;2.45;;;1.98;;
35552;SDS011;21656;46.054;13.614;2022-11-20T08:19:55;2.33;;;1.80;;
35552;SDS011;21656;46.054;13.614;2022-11-20T08:22:20;2.35;;;1.80;;
35552;SDS011;21656;46.054;13.614;2022-11-20T08:24:46;4.85;;;1.65;;
35552;SDS011;21656;46.054;13.614;2022-11-20T08:27:11;1.77;;;1.40;;
35552;SDS011;21656;46.054;13.614;2022-11-20T08:29:37;3.17;;;2.22;;
35552;SDS011;21656;46.054;13.614;2022-11-20T08:32:02;2.47;;;1.67;;
35552;SDS011;21656;46.054;13.614;2022-11-20T08:34:28;4.38;;;2.50;;
35552;SDS011;21656;46.054;13.614;2022-11-20T08:36:53;5.05;;;4.30;;
35552;SDS011;21656;46.054;13.614;2022-11-20T08:39:18;7.90;;;4.50;;
35552;SDS011;21656;46.054;13.614;2022-11-20T08:41:44;4.10;;;3.17;;
35552;SDS011;21656;46.054;13.614;2022-11-20T08:44:09;4.60;;;3.60;;
35552;SDS011;21656;46.054;13.614;2022-11-20T08:46:39;5.13;;;3.78;;
35552;SDS011;21656;46.054;13.614;2022-11-20T08:49:07;7.90;;;4.25;;
35552;SDS011;21656;46.054;13.614;2022-11-20T08:51:37;5.57;;;3.50;;
35552;SDS011;21656;46.054;13.614;2022-11-20T08:54:03;12.68;;;6.13;;
35552;SDS011;21656;46.054;13.614;2022-11-20T08:56:30;9.02;;;4.93;;
35552;SDS011;21656;46.054;13.614;2022-11-20T08:58:56;3.67;;;2.25;;
35552;SDS011;21656;46.054;13.614;2022-11-20T09:01:22;5.22;;;2.63;;
35552;SDS011;21656;46.054;13.614;2022-11-20T09:03:48;4.30;;;2.00;;
35552;SDS011;21656;46.054;13.614;2022-11-20T09:06:14;3.42;;;2.30;;
35552;SDS011;21656;46.054;13.614;2022-11-20T09:08:40;3.80;;;2.00;;
35552;SDS011;21656;46.054;13.614;2022-11-20T09:11:06;1.83;;;1.20;;
35552;SDS011;21656;46.054;13.614;2022-11-20T09:13:33;4.25;;;2.17;;
35552;SDS011;21656;46.054;13.614;2022-11-20T09:16:01;3.03;;;1.67;;
35552;SDS011;21656;46.054;13.614;2022-11-20T09:18:32;7.28;;;4.53;;
35552;SDS011;21656;46.054;13.614;2022-11-20T09:21:02;0.80;;;0.80;;
35552;SDS011;21656;46.054;13.614;2022-11-20T09:26:57;0.95;;;0.70;;
35552;SDS011;21656;46.054;13.614;2022-11-20T09:29:23;0.60;;;0.60;;
35552;SDS011;21656;46.054;13.614;2022-11-20T09:31:48;0.52;;;0.50;;
35552;SDS011;21656;46.054;13.614;2022-11-20T09:34:13;0.98;;;0.80;;
35552;SDS011;21656;46.054;13.614;2022-11-20T09:36:39;1.13;;;0.70;;
35552;SDS011;21656;46.054;13.614;2022-11-20T09:39:04;0.70;;;0.50;;
35552;SDS011;21656;46.054;13.614;2022-11-20T09:47:45;0.68;;;0.68;;
35552;SDS011;21656;46.054;13.614;2022-11-20T09:50:23;0.40;;;0.40;;
35552;SDS011;21656;46.054;13.614;2022-11-20T09:53:26;0.50;;;0.50;;
35552;SDS011;21656;46.054;13.614;2022-11-20T09:55:47;0.50;;;0.50;;
35552;SDS011;21656;46.054;13.614;2022-11-20T09:58:16;1.40;;;0.60;;
35552;SDS011;21656;46.054;13.614;2022-11-20T10:00:46;0.55;;;0.52;;
35552;SDS011;21656;46.054;13.614;2022-11-20T10:03:20;0.52;;;0.50;;
35552;SDS011;21656;46.054;13.614;2022-11-20T10:05:54;0.73;;;0.55;;
35552;SDS011;21656;46.054;13.614;2022-11-20T10:10:56;0.98;;;0.57;;
35552;SDS011;21656;46.054;13.614;2022-11-20T10:13:39;0.75;;;0.60;;
35552;SDS011;21656;46.054;13.614;2022-11-20T10:19:10;0.40;;;0.40;;
35552;SDS011;21656;46.054;13.614;2022-11-20T10:29:49;0.75;;;0.60;;
35552;SDS011;21656;46.054;13.614;2022-11-20T10:32:38;0.98;;;0.88;;
35552;SDS011;21656;46.054;13.614;2022-11-20T10:35:20;0.45;;;0.45;;
35552;SDS011;21656;46.054;13.614;2022-11-20T10:37:53;0.63;;;0.55;;
35552;SDS011;21656;46.054;13.614;2022-11-20T10:40:25;0.85;;;0.60;;
35552;SDS011;21656;46.054;13.614;2022-11-20T10:42:59;1.15;;;0.70;;
35552;SDS011;21656;46.054;13.614;2022-11-20T10:45:33;0.50;;;0.50;;
35552;SDS011;21656;46.054;13.614;2022-11-20T10:48:21;0.95;;;0.70;;
35552;SDS011;21656;46.054;13.614;2022-11-20T10:50:55;0.93;;;0.70;;
35552;SDS011;21656;46.054;13.614;2022-11-20T11:01:42;0.73;;;0.50;;
35552;SDS011;21656;46.054;13.614;2022-11-20T11:07:06;0.68;;;0.60;;
35552;SDS011;21656;46.054;13.614;2022-11-20T11:09:52;0.55;;;0.55;;
35552;SDS011;21656;46.054;13.614;2022-11-20T11:12:20;0.60;;;0.60;;
35552;SDS011;21656;46.054;13.614;2022-11-20T11:14:48;0.50;;;0.50;;
35552;SDS011;21656;46.054;13.614;2022-11-20T11:17:23;0.50;;;0.50;;
35552;SDS011;21656;46.054;13.614;2022-11-20T11:19:58;0.52;;;0.52;;
35552;SDS011;21656;46.054;13.614;2022-11-20T11:22:33;0.68;;;0.60;;
35552;SDS011;21656;46.054;13.614;2022-11-20T11:25:09;1.25;;;0.70;;
35552;SDS011;21656;46.054;13.614;2022-11-20T11:27:57;0.95;;;0.70;;
35552;SDS011;21656;46.054;13.614;2022-11-20T11:30:30;0.60;;;0.60;;
35552;SDS011;21656;46.054;13.614;2022-11-20T11:33:09;0.80;;;0.73;;
35552;SDS011;21656;46.054;13.614;2022-11-20T11:35:49;0.68;;;0.63;;
35552;SDS011;21656;46.054;13.614;2022-11-20T11:38:30;0.82;;;0.70;;
35552;SDS011;21656;46.054;13.614;2022-11-20T11:41:16;0.60;;;0.60;;
35552;SDS011;21656;46.054;13.614;2022-11-20T11:46:38;0.70;;;0.70;;
35552;SDS011;21656;46.054;13.614;2022-11-20T11:49:18;0.70;;;0.65;;
35552;SDS011;21656;46.054;13.614;2022-11-20T11:52:16;0.73;;;0.70;;
35552;SDS011;21656;46.054;13.614;2022-11-20T11:54:51;1.17;;;0.77;;
35552;SDS011;21656;46.054;13.614;2022-11-20T11:59:54;0.60;;;0.60;;
35552;SDS011;21656;46.054;13.614;2022-11-20T12:05:05;1.20;;;0.80;;
35552;SDS011;21656;46.054;13.614;2022-11-20T12:07:43;3.80;;;1.23;;
35552;SDS011;21656;46.054;13.614;2022-11-20T12:13:20;0.75;;;0.60;;
35552;SDS011;21656;46.054;13.614;2022-11-20T12:15:55;0.70;;;0.70;;
35552;SDS011;21656;46.054;13.614;2022-11-20T12:18:21;0.60;;;0.60;;
35552;SDS011;21656;46.054;13.614;2022-11-20T12:21:10;2.40;;;0.65;;
35552;SDS011;21656;46.054;13.614;2022-11-20T12:29:38;1.42;;;0.70;;
35552;SDS011;21656;46.054;13.614;2022-11-20T12:34:51;0.50;;;0.50;;
35552;SDS011;21656;46.054;13.614;2022-11-20T13:00:06;2.17;;;0.95;;
35552;SDS011;21656;46.054;13.614;2022-11-20T13:05:31;0.70;;;0.70;;
35552;SDS011;21656;46.054;13.614;2022-11-20T13:16:05;1.13;;;0.90;;
35552;SDS011;21656;46.054;13.614;2022-11-20T13:18:38;1.73;;;0.80;;
35552;SDS011;21656;46.054;13.614;2022-11-20T13:21:23;0.75;;;0.70;;
35552;SDS011;21656;46.054;13.614;2022-11-20T13:24:06;0.70;;;0.63;;
35552;SDS011;21656;46.054;13.614;2022-11-20T13:26:33;0.80;;;0.80;;
35552;SDS011;21656;46.054;13.614;2022-11-20T13:29:20;0.75;;;0.73;;
35552;SDS011;21656;46.054;13.614;2022-11-20T13:31:48;0.75;;;0.70;;
35552;SDS011;21656;46.054;13.614;2022-11-20T13:34:22;1.63;;;1.10;;
35552;SDS011;21656;46.054;13.614;2022-11-20T13:36:50;0.70;;;0.70;;
35552;SDS011;21656;46.054;13.614;2022-11-20T13:39:24;0.80;;;0.80;;
35552;SDS011;21656;46.054;13.614;2022-11-20T13:41:54;2.05;;;0.90;;
35552;SDS011;21656;46.054;13.614;2022-11-20T13:47:01;0.95;;;0.77;;
35552;SDS011;21656;46.054;13.614;2022-11-20T13:49:30;1.58;;;1.00;;
35552;SDS011;21656;46.054;13.614;2022-11-20T14:01:09;3.35;;;1.30;;
35552;SDS011;21656;46.054;13.614;2022-11-20T14:03:40;1.70;;;1.20;;
35552;SDS011;21656;46.054;13.614;2022-11-20T14:06:28;3.72;;;1.50;;
35552;SDS011;21656;46.054;13.614;2022-11-20T14:08:57;1.35;;;0.88;;
35552;SDS011;21656;46.054;13.614;2022-11-20T14:11:25;1.10;;;1.00;;
35552;SDS011;21656;46.054;13.614;2022-11-20T14:13:58;1.77;;;1.00;;
35552;SDS011;21656;46.054;13.614;2022-11-20T14:16:38;1.73;;;1.20;;
35552;SDS011;21656;46.054;13.614;2022-11-20T14:21:49;1.60;;;1.50;;
35552;SDS011;21656;46.054;13.614;2022-11-20T14:24:20;1.88;;;1.45;;
35552;SDS011;21656;46.054;13.614;2022-11-20T14:26:50;1.45;;;1.10;;
35552;SDS011;21656;46.054;13.614;2022-11-20T14:29:30;2.05;;;1.33;;
35552;SDS011;21656;46.054;13.614;2022-11-20T14:32:00;1.77;;;1.27;;
35552;SDS011;21656;46.054;13.614;2022-11-20T14:34:33;1.50;;;1.27;;
35552;SDS011;21656;46.054;13.614;2022-11-20T14:37:05;1.52;;;0.80;;
35552;SDS011;21656;46.054;13.614;2022-11-20T14:39:41;1.08;;;0.90;;
35552;SDS011;21656;46.054;13.614;2022-11-20T14:42:20;1.42;;;1.00;;
35552;SDS011;21656;46.054;13.614;2022-11-20T14:44:49;1.55;;;1.10;;
35552;SDS011;21656;46.054;13.614;2022-11-20T14:47:26;1.88;;;0.77;;
35552;SDS011;21656;46.054;13.614;2022-11-20T14:49:55;1.17;;;1.05;;
35552;SDS011;21656;46.054;13.614;2022-11-20T14:52:24;1.70;;;1.30;;
35552;SDS011;21656;46.054;13.614;2022-11-20T14:54:52;1.52;;;1.35;;
35552;SDS011;21656;46.054;13.614;2022-11-20T14:57:29;2.53;;;1.30;;
35552;SDS011;21656;46.054;13.614;2022-11-20T15:00:06;1.27;;;1.08;;
35552;SDS011;21656;46.054;13.614;2022-11-20T15:02:41;1.23;;;1.10;;
35552;SDS011;21656;46.054;13.614;2022-11-20T15:05:08;1.63;;;1.10;;
35552;SDS011;21656;46.054;13.614;2022-11-20T15:07:41;1.10;;;1.00;;
35552;SDS011;21656;46.054;13.614;2022-11-20T15:15:43;1.95;;;1.30;;
35552;SDS011;21656;46.054;13.614;2022-11-20T15:18:21;0.95;;;0.90;;
35552;SDS011;21656;46.054;13.614;2022-11-20T15:20:49;1.35;;;0.98;;
35552;SDS011;21656;46.054;13.614;2022-11-20T15:23:16;1.42;;;0.90;;
35552;SDS011;21656;46.054;13.614;2022-11-20T15:25:44;1.45;;;1.35;;
35552;SDS011;21656;46.054;13.614;2022-11-20T15:28:15;2.50;;;1.52;;
35552;SDS011;21656;46.054;13.614;2022-11-20T15:30:46;1.20;;;0.95;;
35552;SDS011;21656;46.054;13.614;2022-11-20T15:33:13;1.10;;;1.00;;
35552;SDS011;21656;46.054;13.614;2022-11-20T15:35:39;4.68;;;2.60;;
35552;SDS011;21656;46.054;13.614;2022-11-20T15:38:05;4.65;;;2.78;;
35552;SDS011;21656;46.054;13.614;2022-11-20T15:40:31;4.40;;;2.90;;
35552;SDS011;21656;46.054;13.614;2022-11-20T15:42:58;5.65;;;4.75;;
35552;SDS011;21656;46.054;13.614;2022-11-20T15:45:33;4.03;;;3.50;;
35552;SDS011;21656;46.054;13.614;2022-11-20T15:48:01;6.30;;;4.82;;
35552;SDS011;21656;46.054;13.614;2022-11-20T15:50:36;5.72;;;4.05;;
35552;SDS011;21656;46.054;13.614;2022-11-20T15:53:05;4.63;;;3.50;;
35552;SDS011;21656;46.054;13.614;2022-11-20T15:55:31;4.97;;;3.55;;
35552;SDS011;21656;46.054;13.614;2022-11-20T15:57:57;5.85;;;3.70;;
35552;SDS011;21656;46.054;13.614;2022-11-20T16:00:24;7.45;;;4.85;;
35552;SDS011;21656;46.054;13.614;2022-11-20T16:02:50;7.82;;;5.75;;
35552;SDS011;21656;46.054;13.614;2022-11-20T16:05:15;8.95;;;6.22;;
35552;SDS011;21656;46.054;13.614;2022-11-20T16:07:42;4.22;;;2.92;;
35552;SDS011;21656;46.054;13.614;2022-11-20T16:10:08;5.78;;;2.90;;
35552;SDS011;21656;46.054;13.614;2022-11-20T16:12:34;5.60;;;3.35;;
35552;SDS011;21656;46.054;13.614;2022-11-20T16:18:02;8.55;;;4.03;;
35552;SDS011;21656;46.054;13.614;2022-11-20T16:20:28;7.95;;;4.35;;
35552;SDS011;21656;46.054;13.614;2022-11-20T16:22:54;4.47;;;2.67;;
35552;SDS011;21656;46.054;13.614;2022-11-20T16:25:20;6.00;;;2.88;;
35552;SDS011;21656;46.054;13.614;2022-11-20T16:27:45;5.57;;;3.88;;
35552;SDS011;21656;46.054;13.614;2022-11-20T16:30:11;5.07;;;3.45;;
35552;SDS011;21656;46.054;13.614;2022-11-20T16:32:37;4.97;;;3.40;;
35552;SDS011;21656;46.054;13.614;2022-11-20T16:35:04;6.95;;;4.50;;
35552;SDS011;21656;46.054;13.614;2022-11-20T16:37:32;8.80;;;4.88;;
35552;SDS011;21656;46.054;13.614;2022-11-20T16:39:58;7.82;;;4.70;;
35552;SDS011;21656;46.054;13.614;2022-11-20T16:42:24;5.75;;;4.00;;
35552;SDS011;21656;46.054;13.614;2022-11-20T16:44:50;8.15;;;4.90;;
35552;SDS011;21656;46.054;13.614;2022-11-20T16:47:16;16.27;;;8.77;;
35552;SDS011;21656;46.054;13.614;2022-11-20T16:49:42;7.68;;;5.22;;
35552;SDS011;21656;46.054;13.614;2022-11-20T16:52:08;4.63;;;3.33;;
35552;SDS011;21656;46.054;13.614;2022-11-20T16:54:34;4.53;;;2.78;;
35552;SDS011;21656;46.054;13.614;2022-11-20T16:57:00;6.13;;;2.95;;
35552;SDS011;21656;46.054;13.614;2022-11-20T16:59:26;2.55;;;1.83;;
35552;SDS011;21656;46.054;13.614;2022-11-20T17:01:52;6.05;;;3.50;;
35552;SDS011;21656;46.054;13.614;2022-11-20T17:04:17;8.82;;;4.40;;
35552;SDS011;21656;46.054;13.614;2022-11-20T17:06:43;4.35;;;2.70;;
35552;SDS011;21656;46.054;13.614;2022-11-20T17:09:09;7.93;;;4.93;;
35552;SDS011;21656;46.054;13.614;2022-11-20T17:11:35;6.78;;;3.85;;
35552;SDS011;21656;46.054;13.614;2022-11-20T17:14:01;6.82;;;3.90;;
35552;SDS011;21656;46.054;13.614;2022-11-20T17:16:28;3.80;;;2.60;;
35552;SDS011;21656;46.054;13.614;2022-11-20T17:18:55;11.40;;;6.07;;
35552;SDS011;21656;46.054;13.614;2022-11-20T17:21:22;6.20;;;3.10;;
35552;SDS011;21656;46.054;13.614;2022-11-20T17:23:47;1.48;;;1.30;;
35552;SDS011;21656;46.054;13.614;2022-11-20T17:26:17;5.50;;;2.45;;
35552;SDS011;21656;46.054;13.614;2022-11-20T17:28:46;2.42;;;1.20;;
35552;SDS011;21656;46.054;13.614;2022-11-20T17:31:33;1.65;;;1.25;;
35552;SDS011;21656;46.054;13.614;2022-11-20T17:34:02;1.58;;;1.10;;
35552;SDS011;21656;46.054;13.614;2022-11-20T17:36:29;2.13;;;1.20;;
35552;SDS011;21656;46.054;13.614;2022-11-20T17:38:56;1.85;;;1.15;;
35552;SDS011;21656;46.054;13.614;2022-11-20T17:41:23;1.48;;;1.13;;
35552;SDS011;21656;46.054;13.614;2022-11-20T17:43:54;1.52;;;1.17;;
35552;SDS011;21656;46.054;13.614;2022-11-20T17:46:22;1.77;;;1.30;;
35552;SDS011;21656;46.054;13.614;2022-11-20T17:48:50;1.88;;;1.40;;
35552;SDS011;21656;46.054;13.614;2022-11-20T17:51:17;1.73;;;1.25;;
35552;SDS011;21656;46.054;13.614;2022-11-20T17:53:45;1.65;;;1.50;;
35552;SDS011;21656;46.054;13.614;2022-11-20T17:56:12;5.63;;;2.95;;
35552;SDS011;21656;46.054;13.614;2022-11-20T17:58:57;7.05;;;3.47;;
35552;SDS011;21656;46.054;13.614;2022-11-20T18:01:25;6.15;;;3.95;;
35552;SDS011;21656;46.054;13.614;2022-11-20T18:03:51;7.00;;;4.43;;
35552;SDS011;21656;46.054;13.614;2022-11-20T18:06:17;8.48;;;5.55;;
35552;SDS011;21656;46.054;13.614;2022-11-20T18:08:48;5.40;;;3.92;;
35552;SDS011;21656;46.054;13.614;2022-11-20T18:11:18;6.15;;;4.85;;
35552;SDS011;21656;46.054;13.614;2022-11-20T18:13:51;9.45;;;5.43;;
35552;SDS011;21656;46.054;13.614;2022-11-20T18:16:38;7.03;;;4.68;;
35552;SDS011;21656;46.054;13.614;2022-11-20T18:19:09;5.97;;;3.63;;
35552;SDS011;21656;46.054;13.614;2022-11-20T18:21:36;5.95;;;3.95;;
35552;SDS011;21656;46.054;13.614;2022-11-20T18:24:02;9.55;;;6.40;;
35552;SDS011;21656;46.054;13.614;2022-11-20T18:26:28;7.93;;;6.05;;
35552;SDS011;21656;46.054;13.614;2022-11-20T18:28:53;7.18;;;5.00;;
35552;SDS011;21656;46.054;13.614;2022-11-20T18:31:20;7.65;;;4.85;;
35552;SDS011;21656;46.054;13.614;2022-11-20T18:33:46;4.38;;;3.47;;
35552;SDS011;21656;46.054;13.614;2022-11-20T18:36:16;4.60;;;2.30;;
35552;SDS011;21656;46.054;13.614;2022-11-20T18:38:48;4.47;;;2.63;;
35552;SDS011;21656;46.054;13.614;2022-11-20T18:41:19;9.15;;;4.60;;
35552;SDS011;21656;46.054;13.614;2022-11-20T18:44:05;4.35;;;2.85;;
35552;SDS011;21656;46.054;13.614;2022-11-20T18:46:54;6.68;;;3.97;;
35552;SDS011;21656;46.054;13.614;2022-11-20T18:49:20;9.82;;;5.47;;
35552;SDS011;21656;46.054;13.614;2022-11-20T18:51:46;18.48;;;10.50;;
35552;SDS011;21656;46.054;13.614;2022-11-20T18:54:12;8.73;;;4.93;;
35552;SDS011;21656;46.054;13.614;2022-11-20T18:56:38;6.47;;;4.70;;
35552;SDS011;21656;46.054;13.614;2022-11-20T18:59:06;6.20;;;3.85;;
35552;SDS011;21656;46.054;13.614;2022-11-20T19:01:36;12.77;;;6.80;;
35552;SDS011;21656;46.054;13.614;2022-11-20T19:04:05;8.40;;;4.60;;
35552;SDS011;21656;46.054;13.614;2022-11-20T19:06:35;9.35;;;5.38;;
35552;SDS011;21656;46.054;13.614;2022-11-20T19:09:03;11.20;;;5.82;;
35552;SDS011;21656;46.054;13.614;2022-11-20T19:11:31;9.55;;;5.65;;
35552;SDS011;21656;46.054;13.614;2022-11-20T19:13:57;13.82;;;8.25;;
35552;SDS011;21656;46.054;13.614;2022-11-20T19:16:23;9.98;;;4.88;;
35552;SDS011;21656;46.054;13.614;2022-11-20T19:18:48;13.88;;;8.18;;
35552;SDS011;21656;46.054;13.614;2022-11-20T19:21:19;13.32;;;7.95;;
35552;SDS011;21656;46.054;13.614;2022-11-20T19:23:48;11.43;;;4.80;;
35552;SDS011;21656;46.054;13.614;2022-11-20T19:26:15;7.35;;;4.20;;
35552;SDS011;21656;46.054;13.614;2022-11-20T19:28:41;7.63;;;4.18;;
35552;SDS011;21656;46.054;13.614;2022-11-20T19:31:08;10.10;;;5.38;;
35552;SDS011;21656;46.054;13.614;2022-11-20T19:33:36;10.20;;;4.93;;
35552;SDS011;21656;46.054;13.614;2022-11-20T19:36:08;6.60;;;4.38;;
35552;SDS011;21656;46.054;13.614;2022-11-20T19:38:42;8.98;;;4.68;;
35552;SDS011;21656;46.054;13.614;2022-11-20T19:41:14;10.65;;;6.00;;
35552;SDS011;21656;46.054;13.614;2022-11-20T19:43:41;12.68;;;6.13;;
35552;SDS011;21656;46.054;13.614;2022-11-20T19:46:08;12.40;;;6.47;;
35552;SDS011;21656;46.054;13.614;2022-11-20T19:48:34;15.25;;;6.45;;
35552;SDS011;21656;46.054;13.614;2022-11-20T19:51:08;11.35;;;4.35;;
35552;SDS011;21656;46.054;13.614;2022-11-20T19:53:35;9.32;;;4.72;;
35552;SDS011;21656;46.054;13.614;2022-11-20T19:56:00;9.98;;;6.13;;
35552;SDS011;21656;46.054;13.614;2022-11-20T19:58:26;6.03;;;3.85;;
35552;SDS011;21656;46.054;13.614;2022-11-20T20:00:53;5.70;;;3.58;;
35552;SDS011;21656;46.054;13.614;2022-11-20T20:03:18;4.65;;;2.78;;
35552;SDS011;21656;46.054;13.614;2022-11-20T20:05:45;5.47;;;3.35;;
35552;SDS011;21656;46.054;13.614;2022-11-20T20:08:11;5.43;;;3.33;;
35552;SDS011;21656;46.054;13.614;2022-11-20T20:10:37;4.40;;;3.15;;
35552;SDS011;21656;46.054;13.614;2022-11-20T20:13:04;3.63;;;2.63;;
35552;SDS011;21656;46.054;13.614;2022-11-20T20:15:30;7.63;;;4.30;;
35552;SDS011;21656;46.054;13.614;2022-11-20T20:17:55;9.30;;;4.55;;
35552;SDS011;21656;46.054;13.614;2022-11-20T20:20:21;8.55;;;3.30;;
35552;SDS011;21656;46.054;13.614;2022-11-20T20:22:48;8.10;;;3.88;;
35552;SDS011;21656;46.054;13.614;2022-11-20T20:25:14;5.63;;;3.70;;
35552;SDS011;21656;46.054;13.614;2022-11-20T20:27:39;8.70;;;4.03;;
35552;SDS011;21656;46.054;13.614;2022-11-20T20:30:05;11.95;;;7.57;;
35552;SDS011;21656;46.054;13.614;2022-11-20T20:32:33;10.80;;;4.80;;
35552;SDS011;21656;46.054;13.614;2022-11-20T20:35:00;27.27;;;15.70;;
35552;SDS011;21656;46.054;13.614;2022-11-20T20:37:25;7.45;;;3.30;;
35552;SDS011;21656;46.054;13.614;2022-11-20T20:39:51;15.07;;;9.32;;
35552;SDS011;21656;46.054;13.614;2022-11-20T20:42:16;37.47;;;24.08;;
35552;SDS011;21656;46.054;13.614;2022-11-20T20:44:42;12.68;;;7.50;;
35552;SDS011;21656;46.054;13.614;2022-11-20T20:47:33;7.18;;;5.20;;
35552;SDS011;21656;46.054;13.614;2022-11-20T20:50:02;6.07;;;3.92;;
35552;SDS011;21656;46.054;13.614;2022-11-20T20:52:32;4.57;;;2.97;;
35552;SDS011;21656;46.054;13.614;2022-11-20T20:54:58;5.00;;;2.50;;
35552;SDS011;21656;46.054;13.614;2022-11-20T20:57:24;11.88;;;8.68;;
35552;SDS011;21656;46.054;13.614;2022-11-20T20:59:51;11.05;;;8.00;;
35552;SDS011;21656;46.054;13.614;2022-11-20T21:02:17;3.90;;;2.70;;
35552;SDS011;21656;46.054;13.614;2022-11-20T21:04:46;9.38;;;6.25;;
35552;SDS011;21656;46.054;13.614;2022-11-20T21:07:12;12.13;;;8.45;;
35552;SDS011;21656;46.054;13.614;2022-11-20T21:09:38;7.25;;;5.00;;
35552;SDS011;21656;46.054;13.614;2022-11-20T21:12:04;5.13;;;3.70;;
35552;SDS011;21656;46.054;13.614;2022-11-20T21:14:29;4.88;;;2.78;;
35552;SDS011;21656;46.054;13.614;2022-11-20T21:16:55;5.53;;;2.97;;
35552;SDS011;21656;46.054;13.614;2022-11-20T21:19:21;7.40;;;3.65;;
35552;SDS011;21656;46.054;13.614;2022-11-20T21:21:46;7.72;;;3.40;;
35552;SDS011;21656;46.054;13.614;2022-11-20T21:24:27;6.38;;;3.67;;
35552;SDS011;21656;46.054;13.614;2022-11-20T21:26:55;6.80;;;3.63;;
35552;SDS011;21656;46.054;13.614;2022-11-20T21:29:22;3.60;;;2.95;;
35552;SDS011;21656;46.054;13.614;2022-11-20T21:31:48;5.03;;;2.60;;
35552;SDS011;21656;46.054;13.614;2022-11-20T21:34:15;3.53;;;2.42;;
35552;SDS011;21656;46.054;13.614;2022-11-20T21:36:41;4.13;;;2.70;;
35552;SDS011;21656;46.054;13.614;2022-11-20T21:39:08;3.65;;;2.00;;
35552;SDS011;21656;46.054;13.614;2022-11-20T21:41:34;3.88;;;2.63;;
35552;SDS011;21656;46.054;13.614;2022-11-20T21:44:00;4.30;;;2.67;;
35552;SDS011;21656;46.054;13.614;2022-11-20T21:46:28;4.07;;;2.50;;
35552;SDS011;21656;46.054;13.614;2022-11-20T21:48:54;6.90;;;2.92;;
35552;SDS011;21656;46.054;13.614;2022-11-20T21:51:20;3.72;;;2.60;;
35552;SDS011;21656;46.054;13.614;2022-11-20T21:53:48;3.33;;;2.20;;
35552;SDS011;21656;46.054;13.614;2022-11-20T21:56:16;4.47;;;2.45;;
35552;SDS011;21656;46.054;13.614;2022-11-20T21:58:43;4.68;;;2.38;;
35552;SDS011;21656;46.054;13.614;2022-11-20T22:01:11;4.15;;;2.70;;
35552;SDS011;21656;46.054;13.614;2022-11-20T22:03:39;3.88;;;2.63;;
35552;SDS011;21656;46.054;13.614;2022-11-20T22:06:07;6.93;;;2.33;;
35552;SDS011;21656;46.054;13.614;2022-11-20T22:08:34;2.53;;;1.88;;
35552;SDS011;21656;46.054;13.614;2022-11-20T22:11:08;2.72;;;1.92;;
35552;SDS011;21656;46.054;13.614;2022-11-20T22:13:36;4.43;;;2.28;;
35552;SDS011;21656;46.054;13.614;2022-11-20T22:16:20;6.10;;;2.20;;
35552;SDS011;21656;46.054;13.614;2022-11-20T22:18:47;2.63;;;1.67;;
35552;SDS011;21656;46.054;13.614;2022-11-20T22:21:15;3.10;;;1.95;;
35552;SDS011;21656;46.054;13.614;2022-11-20T22:23:41;2.58;;;2.00;;
35552;SDS011;21656;46.054;13.614;2022-11-20T22:28:34;2.60;;;2.08;;
35552;SDS011;21656;46.054;13.614;2022-11-20T22:31:00;5.00;;;1.95;;
35552;SDS011;21656;46.054;13.614;2022-11-20T22:33:28;3.28;;;1.90;;
35552;SDS011;21656;46.054;13.614;2022-11-20T22:35:58;2.40;;;1.75;;
35552;SDS011;21656;46.054;13.614;2022-11-20T22:38:43;5.05;;;4.10;;
35552;SDS011;21656;46.054;13.614;2022-11-20T22:43:42;2.75;;;1.85;;
35552;SDS011;21656;46.054;13.614;2022-11-20T22:46:09;3.13;;;1.90;;
35552;SDS011;21656;46.054;13.614;2022-11-20T22:48:36;4.38;;;2.13;;
35552;SDS011;21656;46.054;13.614;2022-11-20T22:51:13;3.65;;;1.95;;
35552;SDS011;21656;46.054;13.614;2022-11-20T22:53:41;2.25;;;1.80;;
35552;SDS011;21656;46.054;13.614;2022-11-20T22:56:08;2.50;;;1.90;;
